createdAt,value
2022-12-08T00:01:33.579Z,65.62
2022-12-08T00:04:05.737Z,65.83
2022-12-08T00:07:00.860Z,64.68
2022-12-08T00:10:10.346Z,63.92
2022-12-08T00:12:47.475Z,64.81
2022-12-08T00:15:19.024Z,64.87
2022-12-08T00:17:50.706Z,66.48
2022-12-08T00:20:20.180Z,67.83
2022-12-08T00:22:48.716Z,68.91
2022-12-08T00:25:26.357Z,70.45
2022-12-08T00:27:57.541Z,70.97
2022-12-08T00:30:25.957Z,71.94
2022-12-08T00:33:08.915Z,72.67
2022-12-08T00:35:43.222Z,73.09
2022-12-08T00:38:23.241Z,74.21
2022-12-08T00:40:54.724Z,74.15
2022-12-08T00:43:23.206Z,74.57
2022-12-08T00:45:52.881Z,74.63
2022-12-08T00:48:21.595Z,74.76
2022-12-08T00:50:49.992Z,75.01
2022-12-08T00:53:22.357Z,74.93
2022-12-08T00:55:54.657Z,75.34
2022-12-08T00:58:23.383Z,75.51
2022-12-08T01:00:52.040Z,75.77
2022-12-08T01:03:24.047Z,76.63
2022-12-08T01:08:52.559Z,77.22
2022-12-08T01:11:21.750Z,77.24
2022-12-08T01:13:53.272Z,77.39
2022-12-08T01:16:26.989Z,77.09
2022-12-08T01:18:55.989Z,77.05
2022-12-08T01:21:30.254Z,76.66
2022-12-08T01:24:04.720Z,76.50
2022-12-08T01:26:33.287Z,76.35
2022-12-08T01:29:10.936Z,76.39
2022-12-08T01:31:42.296Z,76.50
2022-12-08T01:34:16.156Z,76.71
2022-12-08T01:36:48.803Z,76.92
2022-12-08T01:39:20.496Z,77.21
2022-12-08T01:41:49.531Z,77.29
2022-12-08T01:44:23.404Z,77.30
2022-12-08T01:46:54.931Z,77.39
2022-12-08T01:49:52.133Z,77.79
2022-12-08T01:55:21.745Z,78.07
2022-12-08T02:11:42.117Z,79.18
2022-12-08T02:14:23.889Z,78.63
2022-12-08T02:18:02.595Z,79.02
2022-12-08T02:20:54.460Z,79.14
2022-12-08T02:23:58.927Z,79.08
2022-12-08T02:27:03.428Z,79.50
2022-12-08T02:36:56.424Z,80.33
2022-12-08T02:40:01.772Z,80.37
2022-12-08T02:43:04.900Z,80.78
2022-12-08T02:45:50.194Z,81.15
2022-12-08T02:48:18.560Z,80.64
2022-12-08T02:50:49.679Z,80.63
2022-12-08T02:53:20.833Z,80.69
2022-12-08T02:56:24.059Z,80.66
2022-12-08T02:59:25.286Z,80.43
2022-12-08T03:02:12.784Z,80.46
2022-12-08T03:05:19.308Z,81.02
2022-12-08T03:07:58.889Z,80.95
2022-12-08T03:10:27.203Z,81.13
2022-12-08T03:13:06.965Z,81.41
2022-12-08T03:15:48.567Z,81.73
2022-12-08T03:18:20.161Z,82.55
2022-12-08T03:20:54.752Z,82.23
2022-12-08T03:23:23.804Z,82.38
2022-12-08T03:26:24.858Z,82.62
2022-12-08T03:28:59.142Z,82.36
2022-12-08T03:31:30.052Z,82.51
2022-12-08T03:34:08.504Z,82.62
2022-12-08T03:36:40.087Z,82.58
2022-12-08T03:39:10.406Z,83.20
2022-12-08T03:41:44.611Z,82.55
2022-12-08T03:44:15.336Z,82.46
2022-12-08T03:46:46.277Z,82.39
2022-12-08T03:49:14.702Z,82.62
2022-12-08T03:51:49.359Z,82.74
2022-12-08T03:54:17.700Z,83.03
2022-12-08T03:56:46.101Z,82.21
2022-12-08T03:59:17.432Z,82.75
2022-12-08T04:01:45.832Z,82.96
2022-12-08T04:04:14.186Z,83.05
2022-12-08T04:06:42.794Z,83.94
2022-12-08T04:09:11.062Z,84.42
2022-12-08T04:11:39.565Z,83.82
2022-12-08T04:14:08.174Z,83.43
2022-12-08T04:16:36.566Z,83.56
2022-12-08T04:19:04.913Z,84.59
2022-12-08T04:21:33.246Z,85.20
2022-12-08T04:24:01.795Z,85.26
2022-12-08T04:26:30.447Z,85.36
2022-12-08T04:28:58.864Z,84.65
2022-12-08T04:31:27.217Z,83.73
2022-12-08T04:33:55.577Z,83.06
2022-12-08T04:36:23.912Z,82.82
2022-12-08T04:38:52.845Z,82.58
2022-12-08T04:41:23.243Z,82.33
2022-12-08T04:43:51.631Z,82.56
2022-12-08T04:46:20.029Z,82.58
2022-12-08T04:48:48.413Z,82.81
2022-12-08T04:51:18.682Z,83.08
2022-12-08T04:53:48.053Z,83.09
2022-12-08T04:56:20.299Z,83.33
2022-12-08T04:58:48.713Z,83.13
2022-12-08T05:01:17.167Z,83.15
2022-12-08T05:03:45.669Z,83.18
2022-12-08T05:06:15.460Z,83.47
2022-12-08T05:08:46.539Z,83.61
2022-12-08T05:11:15.501Z,83.97
2022-12-08T05:13:47.005Z,84.30
2022-12-08T05:16:16.303Z,84.77
2022-12-08T05:18:45.124Z,84.06
2022-12-08T05:21:16.087Z,83.86
2022-12-08T05:23:44.424Z,83.81
2022-12-08T05:26:12.664Z,83.88
2022-12-08T05:28:45.441Z,83.77
2022-12-08T05:31:15.863Z,83.62
2022-12-08T05:33:45.298Z,83.97
2022-12-08T05:36:18.666Z,84.17
2022-12-08T05:38:47.819Z,84.35
2022-12-08T05:41:21.623Z,84.05
2022-12-08T05:43:50.439Z,83.59
2022-12-08T05:46:18.928Z,83.86
2022-12-08T05:48:50.119Z,83.94
2022-12-08T05:51:24.407Z,83.94
2022-12-08T05:53:53.943Z,84.20
2022-12-08T05:56:23.058Z,84.44
2022-12-08T05:58:51.883Z,84.39
2022-12-08T06:01:31.841Z,84.34
2022-12-08T06:04:02.431Z,84.34
2022-12-08T06:06:31.457Z,85.16
2022-12-08T06:08:59.790Z,85.42
2022-12-08T06:11:30.766Z,84.47
2022-12-08T06:13:59.675Z,83.96
2022-12-08T06:16:29.053Z,83.83
2022-12-08T06:18:58.357Z,83.91
2022-12-08T06:21:26.717Z,83.87
2022-12-08T06:23:57.208Z,83.83
2022-12-08T06:26:25.808Z,83.98
2022-12-08T06:28:54.472Z,83.94
2022-12-08T06:31:25.724Z,83.99
2022-12-08T06:33:55.983Z,83.88
2022-12-08T06:36:28.663Z,84.02
2022-12-08T06:38:57.568Z,84.03
2022-12-08T06:41:26.030Z,84.22
2022-12-08T06:43:58.354Z,84.28
2022-12-08T06:46:26.654Z,84.70
2022-12-08T06:48:55.207Z,84.67
2022-12-08T06:51:26.614Z,84.59
2022-12-08T06:53:54.967Z,84.18
2022-12-08T06:56:25.403Z,83.83
2022-12-08T06:58:53.716Z,83.57
2022-12-08T07:01:22.281Z,83.48
2022-12-08T07:03:50.785Z,83.61
2022-12-08T07:06:25.034Z,84.11
2022-12-08T07:08:53.840Z,84.41
2022-12-08T07:11:22.802Z,83.86
2022-12-08T07:13:51.982Z,83.84
2022-12-08T07:16:20.392Z,83.67
2022-12-08T07:18:48.659Z,83.65
2022-12-08T07:21:17.693Z,83.76
2022-12-08T07:23:56.017Z,84.28
2022-12-08T07:26:27.695Z,83.76
2022-12-08T07:28:57.729Z,83.64
2022-12-08T07:31:27.619Z,83.44
2022-12-08T07:33:59.687Z,83.51
2022-12-08T07:36:31.951Z,83.49
2022-12-08T07:39:01.055Z,83.55
2022-12-08T07:41:29.401Z,83.60
2022-12-08T07:43:58.382Z,83.48
2022-12-08T07:46:27.661Z,83.73
2022-12-08T07:48:56.550Z,84.23
2022-12-08T07:51:26.059Z,83.91
2022-12-08T07:53:55.145Z,83.75
2022-12-08T07:56:24.746Z,83.87
2022-12-08T07:58:52.981Z,83.72
2022-12-08T08:01:24.421Z,83.65
2022-12-08T08:03:53.416Z,83.57
2022-12-08T08:06:21.819Z,83.55
2022-12-08T08:08:50.023Z,83.48
2022-12-08T08:11:21.276Z,83.79
2022-12-08T08:13:52.873Z,83.89
2022-12-08T08:16:21.726Z,84.39
2022-12-08T08:18:52.140Z,84.11
2022-12-08T08:21:44.243Z,83.71
2022-12-08T08:24:10.242Z,83.32
2022-12-08T08:26:41.011Z,82.99
2022-12-08T08:29:09.365Z,82.88
2022-12-08T08:31:37.841Z,83.08
2022-12-08T08:34:07.142Z,83.53
2022-12-08T08:36:36.020Z,84.48
2022-12-08T08:39:05.433Z,84.70
2022-12-08T08:41:34.175Z,84.45
2022-12-08T08:44:02.645Z,83.63
2022-12-08T08:46:30.937Z,82.79
2022-12-08T08:48:59.313Z,82.42
2022-12-08T08:51:27.573Z,82.03
2022-12-08T08:53:55.837Z,81.99
2022-12-08T08:56:24.351Z,82.11
2022-12-08T08:58:54.098Z,82.07
2022-12-08T09:01:29.008Z,82.47
2022-12-08T09:03:58.042Z,82.67
2022-12-08T09:06:26.835Z,82.84
2022-12-08T09:08:55.280Z,82.77
2022-12-08T09:11:24.319Z,83.03
2022-12-08T09:13:54.259Z,83.28
2022-12-08T09:16:23.755Z,83.49
2022-12-08T09:18:52.186Z,83.82
2022-12-08T09:21:27.019Z,83.75
2022-12-08T09:23:57.621Z,82.95
2022-12-08T09:26:27.326Z,82.34
2022-12-08T09:28:56.579Z,81.64
2022-12-08T09:31:25.827Z,81.01
2022-12-08T09:33:54.382Z,80.32
2022-12-08T09:36:23.426Z,80.50
2022-12-08T09:38:53.064Z,81.05
2022-12-08T09:41:30.832Z,80.84
2022-12-08T09:44:16.439Z,81.25
2022-12-08T09:46:44.972Z,81.28
2022-12-08T09:49:17.863Z,81.52
2022-12-08T09:51:49.368Z,81.68
2022-12-08T09:54:19.718Z,81.95
2022-12-08T09:56:50.931Z,81.71
2022-12-08T09:59:31.654Z,81.70
2022-12-08T10:02:02.193Z,81.75
2022-12-08T10:04:34.927Z,81.93
2022-12-08T10:07:36.793Z,81.98
2022-12-08T10:10:51.695Z,82.72
2022-12-08T10:13:56.422Z,82.86
2022-12-08T10:16:40.212Z,82.07
2022-12-08T10:19:20.149Z,82.19
2022-12-08T10:21:48.723Z,81.98
2022-12-08T10:24:42.432Z,82.12
2022-12-08T10:27:14.309Z,82.21
2022-12-08T10:29:42.831Z,82.44
2022-12-08T10:32:23.761Z,82.30
2022-12-08T10:35:05.132Z,82.66
2022-12-08T10:37:34.785Z,83.09
2022-12-08T10:40:15.216Z,83.41
2022-12-08T10:45:45.865Z,82.55
2022-12-08T10:48:20.260Z,82.59
2022-12-08T10:50:56.608Z,82.49
2022-12-08T10:53:28.945Z,82.39
2022-12-08T10:56:02.739Z,82.53
2022-12-08T10:58:34.770Z,82.56
2022-12-08T11:01:25.896Z,82.45
2022-12-08T11:03:58.830Z,83.42
2022-12-08T11:06:37.099Z,83.25
2022-12-08T11:09:23.055Z,83.10
2022-12-08T11:12:07.661Z,82.67
2022-12-08T11:15:03.995Z,82.25
2022-12-08T11:17:44.798Z,82.30
2022-12-08T11:20:13.000Z,82.44
2022-12-08T11:22:43.941Z,82.56
2022-12-08T11:25:19.264Z,82.30
2022-12-08T11:27:50.660Z,82.45
2022-12-08T11:30:29.100Z,82.36
2022-12-08T11:33:02.477Z,82.65
2022-12-08T11:35:38.822Z,82.72
2022-12-08T11:38:22.969Z,82.78
2022-12-08T11:41:00.077Z,82.90
2022-12-08T11:43:45.621Z,82.53
2022-12-08T11:46:20.971Z,82.46
2022-12-08T11:48:49.570Z,82.81
2022-12-08T11:51:45.320Z,83.21
2022-12-08T11:54:25.394Z,83.13
2022-12-08T11:56:59.869Z,83.33
2022-12-08T11:59:39.251Z,83.48
2022-12-08T12:02:18.353Z,83.79
2022-12-08T12:06:03.325Z,84.11
2022-12-08T12:08:27.907Z,84.14
2022-12-08T12:11:34.339Z,84.22
2022-12-08T12:14:13.203Z,84.49
2022-12-08T12:17:15.246Z,84.41
2022-12-08T12:19:43.151Z,84.82
2022-12-08T12:22:23.992Z,84.55
2022-12-08T12:24:54.215Z,84.30
2022-12-08T12:27:33.628Z,84.29
2022-12-08T12:30:07.802Z,84.41
2022-12-08T12:32:55.565Z,84.59
2022-12-08T12:35:58.144Z,84.77
2022-12-08T12:38:53.278Z,84.62
2022-12-08T12:41:47.575Z,84.83
2022-12-08T12:44:16.693Z,84.73
2022-12-08T12:46:49.235Z,84.96
2022-12-08T12:49:41.581Z,84.71
2022-12-08T12:52:27.226Z,84.60
2022-12-08T12:54:58.558Z,84.44
2022-12-08T12:57:38.243Z,84.39
2022-12-08T13:00:09.445Z,84.33
2022-12-08T13:02:38.903Z,84.08
2022-12-08T13:05:18.122Z,84.18
2022-12-08T13:08:09.547Z,83.76
2022-12-08T13:10:49.578Z,84.24
2022-12-08T13:13:27.539Z,84.08
2022-12-08T13:16:22.274Z,83.70
2022-12-08T13:21:39.824Z,82.89
2022-12-08T13:28:00.919Z,82.58
2022-12-08T13:30:54.012Z,82.29
2022-12-08T13:33:27.659Z,82.47
2022-12-08T13:36:34.054Z,81.93
2022-12-08T13:39:04.127Z,82.06
2022-12-08T13:41:49.253Z,81.96
2022-12-08T13:47:33.826Z,81.96
2022-12-08T13:50:55.697Z,82.12
2022-12-08T13:58:49.793Z,83.60
2022-12-08T14:01:24.044Z,84.03
2022-12-08T14:04:33.749Z,84.37
2022-12-08T14:06:49.872Z,84.69
2022-12-08T14:09:23.982Z,84.69
2022-12-08T14:12:04.559Z,84.71
2022-12-08T14:15:10.872Z,84.80
2022-12-08T14:17:29.752Z,85.00
2022-12-08T14:20:25.193Z,84.94
2022-12-08T14:22:54.537Z,84.81
2022-12-08T14:25:25.202Z,84.70
2022-12-08T14:28:02.675Z,84.48
2022-12-08T14:30:34.001Z,84.12
2022-12-08T14:33:04.892Z,84.28
2022-12-08T14:35:38.389Z,84.05
2022-12-08T14:38:27.286Z,84.18
2022-12-08T14:41:10.005Z,84.50
2022-12-08T14:43:38.335Z,84.49
2022-12-08T14:46:21.696Z,85.00
2022-12-08T14:48:50.118Z,85.24
2022-12-08T14:51:24.474Z,85.12
2022-12-08T14:54:01.319Z,85.11
2022-12-08T14:56:56.657Z,85.11
2022-12-08T14:59:32.607Z,85.16
2022-12-08T15:02:29.489Z,85.05
2022-12-08T15:05:11.972Z,85.09
2022-12-08T15:08:07.314Z,85.33
2022-12-08T15:10:52.077Z,85.29
2022-12-08T15:13:26.218Z,85.93
2022-12-08T15:16:31.563Z,86.50
2022-12-08T15:19:29.330Z,86.57
2022-12-08T15:22:00.756Z,86.70
2022-12-08T15:24:32.016Z,86.56
2022-12-08T15:27:00.949Z,86.33
2022-12-08T15:29:31.207Z,86.25
2022-12-08T15:32:02.372Z,86.31
2022-12-08T15:34:32.472Z,86.20
2022-12-08T15:37:00.827Z,86.94
2022-12-08T15:39:38.112Z,86.74
2022-12-08T15:42:13.295Z,86.66
2022-12-08T15:44:44.908Z,86.78
2022-12-08T15:47:23.201Z,87.41
2022-12-08T15:49:56.088Z,87.15
2022-12-08T15:52:26.235Z,86.91
2022-12-08T15:54:55.655Z,86.82
2022-12-08T16:04:19.904Z,87.20
2022-12-08T16:09:21.992Z,87.27
2022-12-08T16:12:10.122Z,87.36
2022-12-08T16:15:47.339Z,87.40
2022-12-08T16:17:29.862Z,87.41
2022-12-08T16:19:58.540Z,87.54
2022-12-08T16:22:52.741Z,87.78
2022-12-08T16:25:20.000Z,87.89
2022-12-08T16:28:29.591Z,88.13
2022-12-08T16:33:22.025Z,88.67
2022-12-08T16:35:50.364Z,88.78
2022-12-08T16:38:18.728Z,89.04
2022-12-08T16:41:08.066Z,88.98
2022-12-08T16:43:36.817Z,88.95
2022-12-08T16:46:05.846Z,88.89
2022-12-08T16:48:34.197Z,88.91
2022-12-08T16:51:05.271Z,88.72
2022-12-08T16:53:33.477Z,89.16
2022-12-08T16:56:01.830Z,89.54
2022-12-08T16:58:30.931Z,89.49
2022-12-08T17:00:59.266Z,89.69
2022-12-08T17:03:27.658Z,89.72
2022-12-08T17:05:55.899Z,89.66
2022-12-08T17:08:24.201Z,89.61
2022-12-08T17:11:08.072Z,89.90
2022-12-08T17:13:42.391Z,90.25
2022-12-08T17:16:14.519Z,90.46
2022-12-08T17:18:43.095Z,90.47
2022-12-08T17:21:13.194Z,90.93
2022-12-08T17:23:42.363Z,91.23
2022-12-08T17:26:11.729Z,91.29
2022-12-08T17:28:59.625Z,91.67
2022-12-08T17:31:30.370Z,92.27
2022-12-08T17:34:11.895Z,92.45
2022-12-08T17:36:40.166Z,92.66
2022-12-08T17:39:13.459Z,92.49
2022-12-08T17:41:46.251Z,92.21
2022-12-08T17:44:17.212Z,92.11
2022-12-08T17:46:52.143Z,91.73
2022-12-08T17:49:26.760Z,90.54
2022-12-08T17:51:58.503Z,89.04
2022-12-08T17:54:27.673Z,89.40
2022-12-08T17:56:59.377Z,88.58
2022-12-08T17:59:29.398Z,88.39
2022-12-08T18:01:58.618Z,87.99
2022-12-08T18:04:27.865Z,88.54
2022-12-08T18:06:56.426Z,87.81
2022-12-08T18:09:24.776Z,86.93
2022-12-08T18:11:53.196Z,85.90
2022-12-08T18:14:21.751Z,85.27
2022-12-08T18:16:50.243Z,84.85
2022-12-08T18:19:19.151Z,84.42
2022-12-08T18:21:47.559Z,84.61
2022-12-08T18:24:24.655Z,83.52
2022-12-08T18:26:53.823Z,83.74
2022-12-08T18:29:23.554Z,83.99
2022-12-08T18:31:52.698Z,84.41
2022-12-08T18:34:21.523Z,83.94
2022-12-08T18:36:50.056Z,82.95
2022-12-08T18:39:37.065Z,82.95
2022-12-08T18:42:23.715Z,83.65
2022-12-08T18:45:00.073Z,83.83
2022-12-08T18:47:28.689Z,83.88
2022-12-08T18:49:57.261Z,84.09
2022-12-08T18:52:31.573Z,84.16
2022-12-08T18:55:08.064Z,83.81
2022-12-08T18:57:39.620Z,83.94
2022-12-08T19:00:12.971Z,84.40
2022-12-08T19:02:42.276Z,84.08
2022-12-08T19:05:18.963Z,83.67
2022-12-08T19:08:04.103Z,83.03
2022-12-08T19:10:38.796Z,83.39
2022-12-08T19:13:08.785Z,83.18
2022-12-08T19:15:37.184Z,83.15
2022-12-08T19:18:05.844Z,83.46
2022-12-08T19:20:34.148Z,83.26
2022-12-08T19:23:02.396Z,83.83
2022-12-08T19:25:34.343Z,83.80
2022-12-08T19:28:02.701Z,83.82
2022-12-08T19:30:34.366Z,83.43
2022-12-08T19:35:34.152Z,83.31
2022-12-08T19:38:05.619Z,83.50
2022-12-08T19:40:51.816Z,83.49
2022-12-08T19:44:01.229Z,83.24
2022-12-08T19:46:30.120Z,83.55
2022-12-08T19:48:59.319Z,83.46
2022-12-08T19:51:30.686Z,83.82
2022-12-08T19:54:02.129Z,84.28
2022-12-08T19:56:32.856Z,84.23
2022-12-08T19:59:01.356Z,84.35
2022-12-08T20:01:30.726Z,84.66
2022-12-08T20:04:02.185Z,85.12
2022-12-08T20:06:30.279Z,86.53
2022-12-08T20:09:01.566Z,85.28
2022-12-08T20:11:32.629Z,85.00
2022-12-08T20:14:01.347Z,84.74
2022-12-08T20:17:01.273Z,84.98
2022-12-08T20:19:30.127Z,84.55
2022-12-08T20:21:58.597Z,84.75
2022-12-08T20:25:03.738Z,83.91
2022-12-08T20:27:34.369Z,84.12
2022-12-08T20:30:02.723Z,83.60
2022-12-08T20:32:31.225Z,83.74
2022-12-08T20:34:59.842Z,83.76
2022-12-08T20:37:28.418Z,83.46
2022-12-08T20:39:56.848Z,83.35
2022-12-08T20:42:25.312Z,82.78
2022-12-08T20:44:53.979Z,82.66
2022-12-08T20:47:22.509Z,81.66
2022-12-08T20:49:51.506Z,81.76
2022-12-08T20:52:20.146Z,81.72
2022-12-08T20:54:48.675Z,80.90
2022-12-08T20:57:17.010Z,78.00
2022-12-08T20:59:45.608Z,77.51
2022-12-08T21:02:14.015Z,77.05
2022-12-08T21:04:42.919Z,76.27
2022-12-08T21:07:11.549Z,76.61
2022-12-08T21:09:39.847Z,76.88
2022-12-08T21:12:08.751Z,75.87
2022-12-08T21:14:37.377Z,76.25
2022-12-08T21:17:06.136Z,75.76
2022-12-08T21:19:34.816Z,75.39
2022-12-08T21:22:03.418Z,75.87
2022-12-08T21:24:34.360Z,74.60
2022-12-08T21:27:03.270Z,74.14
2022-12-08T21:29:31.902Z,74.49
2022-12-08T21:32:01.497Z,73.85
2022-12-08T21:34:34.963Z,73.97
2022-12-08T21:37:03.797Z,73.46
2022-12-08T21:39:32.836Z,73.48
2022-12-08T21:42:22.722Z,73.14
2022-12-08T21:44:51.548Z,72.28
2022-12-08T21:47:20.188Z,72.15
2022-12-08T21:49:51.175Z,72.52
2022-12-08T21:52:19.947Z,71.41
2022-12-08T21:54:50.348Z,71.76
2022-12-08T21:57:18.968Z,71.12
2022-12-08T21:59:47.459Z,70.92
2022-12-08T22:02:22.344Z,71.04
2022-12-08T22:04:51.532Z,71.35
2022-12-08T22:07:21.685Z,70.82
2022-12-08T22:09:50.245Z,71.42
2022-12-08T22:12:18.972Z,71.66
2022-12-08T22:14:47.924Z,71.91
2022-12-08T22:17:17.590Z,72.08
2022-12-08T22:19:46.437Z,72.56
2022-12-08T22:22:14.766Z,72.72
2022-12-08T22:24:43.275Z,73.25
2022-12-08T22:27:11.635Z,73.41
2022-12-08T22:29:39.978Z,73.59
2022-12-08T22:32:08.243Z,72.88
2022-12-08T22:34:36.757Z,73.10
2022-12-08T22:37:05.244Z,73.13
2022-12-08T22:39:33.699Z,72.65
2022-12-08T22:42:01.939Z,73.41
2022-12-08T22:44:30.669Z,73.77
2022-12-08T22:46:58.973Z,73.83
2022-12-08T22:49:27.640Z,73.40
2022-12-08T22:51:55.977Z,73.58
2022-12-08T22:54:24.359Z,73.86
2022-12-08T22:56:52.756Z,74.24
2022-12-08T22:59:21.028Z,74.56
2022-12-08T23:01:49.427Z,74.71
2022-12-08T23:04:18.511Z,75.11
2022-12-08T23:06:46.995Z,75.62
2022-12-08T23:09:15.929Z,76.34
2022-12-08T23:11:44.893Z,77.26
2022-12-08T23:14:13.124Z,77.99
2022-12-08T23:16:47.206Z,78.47
2022-12-08T23:19:16.131Z,78.60
2022-12-08T23:21:44.472Z,78.90
2022-12-08T23:24:13.025Z,79.83
2022-12-08T23:26:43.864Z,80.91
2022-12-08T23:29:12.202Z,80.87
2022-12-08T23:31:59.162Z,81.51
2022-12-08T23:34:33.648Z,82.36
2022-12-08T23:37:02.183Z,82.80
2022-12-08T23:39:35.663Z,83.15
2022-12-08T23:42:06.685Z,82.97
2022-12-08T23:44:38.090Z,83.62
2022-12-08T23:47:06.624Z,83.28
2022-12-08T23:52:34.003Z,83.96
